sensor_id;sensor_type;location;lat;lon;timestamp;P1;durP1;ratioP1;P2;durP2;ratioP2
21519;SDS011;10921;53.614;9.882;2022-11-20T00:01:16;15.48;;;13.85;;
21519;SDS011;10921;53.614;9.882;2022-11-20T00:03:47;14.98;;;13.48;;
21519;SDS011;10921;53.614;9.882;2022-11-20T00:06:14;13.23;;;12.07;;
21519;SDS011;10921;53.614;9.882;2022-11-20T00:08:42;14.75;;;13.25;;
21519;SDS011;10921;53.614;9.882;2022-11-20T00:11:11;14.13;;;12.77;;
21519;SDS011;10921;53.614;9.882;2022-11-20T00:13:45;14.13;;;12.75;;
21519;SDS011;10921;53.614;9.882;2022-11-20T00:16:14;15.40;;;13.05;;
21519;SDS011;10921;53.614;9.882;2022-11-20T00:18:42;17.08;;;12.75;;
21519;SDS011;10921;53.614;9.882;2022-11-20T00:21:11;15.20;;;12.85;;
21519;SDS011;10921;53.614;9.882;2022-11-20T00:23:40;14.18;;;12.73;;
21519;SDS011;10921;53.614;9.882;2022-11-20T00:26:09;15.68;;;13.57;;
21519;SDS011;10921;53.614;9.882;2022-11-20T00:28:37;15.90;;;12.57;;
21519;SDS011;10921;53.614;9.882;2022-11-20T00:31:07;14.10;;;12.77;;
21519;SDS011;10921;53.614;9.882;2022-11-20T00:33:36;14.75;;;13.40;;
21519;SDS011;10921;53.614;9.882;2022-11-20T00:36:06;14.60;;;13.10;;
21519;SDS011;10921;53.614;9.882;2022-11-20T00:38:35;14.02;;;12.73;;
21519;SDS011;10921;53.614;9.882;2022-11-20T00:41:04;17.73;;;13.93;;
21519;SDS011;10921;53.614;9.882;2022-11-20T00:43:32;14.98;;;13.50;;
21519;SDS011;10921;53.614;9.882;2022-11-20T00:45:59;14.60;;;13.05;;
21519;SDS011;10921;53.614;9.882;2022-11-20T00:48:36;13.57;;;12.27;;
21519;SDS011;10921;53.614;9.882;2022-11-20T00:51:02;14.43;;;12.93;;
21519;SDS011;10921;53.614;9.882;2022-11-20T00:53:29;13.70;;;12.43;;
21519;SDS011;10921;53.614;9.882;2022-11-20T00:55:56;13.75;;;12.50;;
21519;SDS011;10921;53.614;9.882;2022-11-20T00:58:28;16.35;;;13.38;;
21519;SDS011;10921;53.614;9.882;2022-11-20T01:01:02;14.32;;;12.60;;
21519;SDS011;10921;53.614;9.882;2022-11-20T01:03:48;13.15;;;11.85;;
21519;SDS011;10921;53.614;9.882;2022-11-20T01:06:19;14.13;;;12.82;;
21519;SDS011;10921;53.614;9.882;2022-11-20T01:08:54;14.18;;;12.85;;
21519;SDS011;10921;53.614;9.882;2022-11-20T01:11:24;14.95;;;13.40;;
21519;SDS011;10921;53.614;9.882;2022-11-20T01:13:52;15.05;;;13.65;;
21519;SDS011;10921;53.614;9.882;2022-11-20T01:18:57;15.77;;;13.95;;
21519;SDS011;10921;53.614;9.882;2022-11-20T01:21:28;17.25;;;14.27;;
21519;SDS011;10921;53.614;9.882;2022-11-20T01:23:57;19.30;;;14.88;;
21519;SDS011;10921;53.614;9.882;2022-11-20T01:26:25;15.57;;;14.00;;
21519;SDS011;10921;53.614;9.882;2022-11-20T01:28:54;16.45;;;14.80;;
21519;SDS011;10921;53.614;9.882;2022-11-20T01:31:23;16.02;;;14.50;;
21519;SDS011;10921;53.614;9.882;2022-11-20T01:33:51;17.00;;;15.23;;
21519;SDS011;10921;53.614;9.882;2022-11-20T01:36:19;15.73;;;14.32;;
21519;SDS011;10921;53.614;9.882;2022-11-20T01:38:47;15.98;;;14.65;;
21519;SDS011;10921;53.614;9.882;2022-11-20T01:41:16;16.60;;;15.00;;
21519;SDS011;10921;53.614;9.882;2022-11-20T01:44:06;16.20;;;14.70;;
21519;SDS011;10921;53.614;9.882;2022-11-20T01:46:35;17.58;;;15.85;;
21519;SDS011;10921;53.614;9.882;2022-11-20T01:49:05;16.37;;;14.80;;
21519;SDS011;10921;53.614;9.882;2022-11-20T01:51:48;15.95;;;14.35;;
21519;SDS011;10921;53.614;9.882;2022-11-20T01:54:19;16.25;;;14.75;;
21519;SDS011;10921;53.614;9.882;2022-11-20T01:56:50;15.57;;;14.27;;
21519;SDS011;10921;53.614;9.882;2022-11-20T01:59:21;15.93;;;14.52;;
21519;SDS011;10921;53.614;9.882;2022-11-20T02:01:50;16.52;;;14.88;;
21519;SDS011;10921;53.614;9.882;2022-11-20T02:04:17;15.75;;;14.20;;
21519;SDS011;10921;53.614;9.882;2022-11-20T02:06:45;15.65;;;14.25;;
21519;SDS011;10921;53.614;9.882;2022-11-20T02:09:15;16.25;;;14.75;;
21519;SDS011;10921;53.614;9.882;2022-11-20T02:11:42;16.35;;;14.85;;
21519;SDS011;10921;53.614;9.882;2022-11-20T02:14:09;16.23;;;14.63;;
21519;SDS011;10921;53.614;9.882;2022-11-20T02:16:37;16.13;;;14.45;;
21519;SDS011;10921;53.614;9.882;2022-11-20T02:19:06;16.23;;;14.63;;
21519;SDS011;10921;53.614;9.882;2022-11-20T02:24:23;16.00;;;14.48;;
21519;SDS011;10921;53.614;9.882;2022-11-20T02:26:54;16.60;;;15.05;;
21519;SDS011;10921;53.614;9.882;2022-11-20T02:32:22;17.23;;;15.15;;
21519;SDS011;10921;53.614;9.882;2022-11-20T02:34:51;16.42;;;14.60;;
21519;SDS011;10921;53.614;9.882;2022-11-20T02:37:18;16.63;;;15.13;;
21519;SDS011;10921;53.614;9.882;2022-11-20T02:39:46;17.92;;;15.15;;
21519;SDS011;10921;53.614;9.882;2022-11-20T02:42:15;16.45;;;14.90;;
21519;SDS011;10921;53.614;9.882;2022-11-20T02:44:41;17.15;;;15.45;;
21519;SDS011;10921;53.614;9.882;2022-11-20T02:47:08;15.98;;;14.48;;
21519;SDS011;10921;53.614;9.882;2022-11-20T02:49:34;17.25;;;15.65;;
21519;SDS011;10921;53.614;9.882;2022-11-20T02:52:01;17.23;;;15.75;;
21519;SDS011;10921;53.614;9.882;2022-11-20T02:54:28;16.35;;;14.70;;
21519;SDS011;10921;53.614;9.882;2022-11-20T02:56:54;16.88;;;15.30;;
21519;SDS011;10921;53.614;9.882;2022-11-20T02:59:21;17.15;;;15.57;;
21519;SDS011;10921;53.614;9.882;2022-11-20T03:01:48;17.00;;;15.40;;
21519;SDS011;10921;53.614;9.882;2022-11-20T03:04:14;17.08;;;15.57;;
21519;SDS011;10921;53.614;9.882;2022-11-20T03:06:41;17.65;;;13.98;;
21519;SDS011;10921;53.614;9.882;2022-11-20T03:09:07;17.05;;;14.52;;
21519;SDS011;10921;53.614;9.882;2022-11-20T03:11:34;16.75;;;15.20;;
21519;SDS011;10921;53.614;9.882;2022-11-20T03:14:04;16.70;;;15.20;;
21519;SDS011;10921;53.614;9.882;2022-11-20T03:16:31;17.30;;;15.80;;
21519;SDS011;10921;53.614;9.882;2022-11-20T03:18:58;15.88;;;14.43;;
21519;SDS011;10921;53.614;9.882;2022-11-20T03:21:25;15.70;;;14.20;;
21519;SDS011;10921;53.614;9.882;2022-11-20T03:23:53;16.63;;;15.05;;
21519;SDS011;10921;53.614;9.882;2022-11-20T03:26:22;16.42;;;15.02;;
21519;SDS011;10921;53.614;9.882;2022-11-20T03:28:53;16.77;;;15.20;;
21519;SDS011;10921;53.614;9.882;2022-11-20T03:31:23;16.02;;;14.60;;
21519;SDS011;10921;53.614;9.882;2022-11-20T03:33:51;15.02;;;13.73;;
21519;SDS011;10921;53.614;9.882;2022-11-20T03:36:18;16.05;;;14.45;;
21519;SDS011;10921;53.614;9.882;2022-11-20T03:38:46;16.17;;;14.50;;
21519;SDS011;10921;53.614;9.882;2022-11-20T03:41:15;15.80;;;14.30;;
21519;SDS011;10921;53.614;9.882;2022-11-20T03:43:56;16.35;;;14.88;;
21519;SDS011;10921;53.614;9.882;2022-11-20T03:46:23;15.85;;;14.35;;
21519;SDS011;10921;53.614;9.882;2022-11-20T03:48:49;15.60;;;14.10;;
21519;SDS011;10921;53.614;9.882;2022-11-20T03:51:21;15.43;;;13.90;;
21519;SDS011;10921;53.614;9.882;2022-11-20T03:53:50;16.02;;;14.52;;
21519;SDS011;10921;53.614;9.882;2022-11-20T03:56:25;15.10;;;13.65;;
21519;SDS011;10921;53.614;9.882;2022-11-20T03:58:53;15.85;;;14.38;;
21519;SDS011;10921;53.614;9.882;2022-11-20T04:01:21;15.13;;;13.70;;
21519;SDS011;10921;53.614;9.882;2022-11-20T04:03:51;15.57;;;14.18;;
21519;SDS011;10921;53.614;9.882;2022-11-20T04:09:12;16.33;;;14.82;;
21519;SDS011;10921;53.614;9.882;2022-11-20T04:11:39;16.17;;;14.57;;
21519;SDS011;10921;53.614;9.882;2022-11-20T04:14:11;15.55;;;14.25;;
21519;SDS011;10921;53.614;9.882;2022-11-20T04:16:40;15.65;;;14.18;;
21519;SDS011;10921;53.614;9.882;2022-11-20T04:19:10;16.10;;;14.40;;
21519;SDS011;10921;53.614;9.882;2022-11-20T04:21:38;15.48;;;13.98;;
21519;SDS011;10921;53.614;9.882;2022-11-20T04:24:04;16.23;;;14.57;;
21519;SDS011;10921;53.614;9.882;2022-11-20T04:26:32;16.40;;;14.85;;
21519;SDS011;10921;53.614;9.882;2022-11-20T04:28:59;15.98;;;14.38;;
21519;SDS011;10921;53.614;9.882;2022-11-20T04:31:28;21.23;;;16.02;;
21519;SDS011;10921;53.614;9.882;2022-11-20T04:34:03;30.27;;;20.65;;
21519;SDS011;10921;53.614;9.882;2022-11-20T04:36:31;27.15;;;19.65;;
21519;SDS011;10921;53.614;9.882;2022-11-20T04:38:59;24.90;;;19.25;;
21519;SDS011;10921;53.614;9.882;2022-11-20T04:41:28;20.20;;;17.97;;
21519;SDS011;10921;53.614;9.882;2022-11-20T04:43:57;18.80;;;16.70;;
21519;SDS011;10921;53.614;9.882;2022-11-20T04:46:28;20.40;;;18.02;;
21519;SDS011;10921;53.614;9.882;2022-11-20T04:48:56;22.17;;;18.33;;
21519;SDS011;10921;53.614;9.882;2022-11-20T04:51:23;21.10;;;17.38;;
21519;SDS011;10921;53.614;9.882;2022-11-20T04:53:50;17.65;;;16.05;;
21519;SDS011;10921;53.614;9.882;2022-11-20T04:56:17;17.38;;;15.75;;
21519;SDS011;10921;53.614;9.882;2022-11-20T04:58:44;18.23;;;16.52;;
21519;SDS011;10921;53.614;9.882;2022-11-20T05:03:47;19.48;;;17.23;;
21519;SDS011;10921;53.614;9.882;2022-11-20T05:06:15;20.13;;;17.95;;
21519;SDS011;10921;53.614;9.882;2022-11-20T05:08:44;21.33;;;18.15;;
21519;SDS011;10921;53.614;9.882;2022-11-20T05:11:14;16.75;;;15.07;;
21519;SDS011;10921;53.614;9.882;2022-11-20T05:13:43;19.52;;;14.63;;
21519;SDS011;10921;53.614;9.882;2022-11-20T05:16:13;16.20;;;14.63;;
21519;SDS011;10921;53.614;9.882;2022-11-20T05:18:41;16.45;;;14.73;;
21519;SDS011;10921;53.614;9.882;2022-11-20T05:21:09;17.52;;;15.05;;
21519;SDS011;10921;53.614;9.882;2022-11-20T05:23:37;16.85;;;15.25;;
21519;SDS011;10921;53.614;9.882;2022-11-20T05:26:05;16.17;;;14.68;;
21519;SDS011;10921;53.614;9.882;2022-11-20T05:28:33;17.67;;;15.10;;
21519;SDS011;10921;53.614;9.882;2022-11-20T05:31:07;19.17;;;14.25;;
21519;SDS011;10921;53.614;9.882;2022-11-20T05:33:36;16.67;;;15.15;;
21519;SDS011;10921;53.614;9.882;2022-11-20T05:36:03;16.65;;;14.98;;
21519;SDS011;10921;53.614;9.882;2022-11-20T05:38:30;16.88;;;15.27;;
21519;SDS011;10921;53.614;9.882;2022-11-20T05:41:02;16.40;;;14.68;;
21519;SDS011;10921;53.614;9.882;2022-11-20T05:43:33;16.05;;;14.55;;
21519;SDS011;10921;53.614;9.882;2022-11-20T05:46:01;17.17;;;14.88;;
21519;SDS011;10921;53.614;9.882;2022-11-20T05:48:28;16.83;;;15.23;;
21519;SDS011;10921;53.614;9.882;2022-11-20T05:50:56;16.73;;;15.00;;
21519;SDS011;10921;53.614;9.882;2022-11-20T05:53:24;17.23;;;15.63;;
21519;SDS011;10921;53.614;9.882;2022-11-20T05:55:56;16.33;;;14.63;;
21519;SDS011;10921;53.614;9.882;2022-11-20T05:58:27;17.42;;;15.60;;
21519;SDS011;10921;53.614;9.882;2022-11-20T06:00:54;19.73;;;16.08;;
21519;SDS011;10921;53.614;9.882;2022-11-20T06:03:20;16.50;;;14.90;;
21519;SDS011;10921;53.614;9.882;2022-11-20T06:05:47;20.40;;;15.95;;
21519;SDS011;10921;53.614;9.882;2022-11-20T06:08:13;19.42;;;17.02;;
21519;SDS011;10921;53.614;9.882;2022-11-20T06:10:40;18.92;;;16.48;;
21519;SDS011;10921;53.614;9.882;2022-11-20T06:13:06;22.02;;;18.63;;
21519;SDS011;10921;53.614;9.882;2022-11-20T06:15:33;23.95;;;19.40;;
21519;SDS011;10921;53.614;9.882;2022-11-20T06:17:59;21.02;;;18.75;;
21519;SDS011;10921;53.614;9.882;2022-11-20T06:20:26;20.60;;;18.40;;
21519;SDS011;10921;53.614;9.882;2022-11-20T06:22:52;25.83;;;19.05;;
21519;SDS011;10921;53.614;9.882;2022-11-20T06:25:19;20.13;;;17.83;;
21519;SDS011;10921;53.614;9.882;2022-11-20T06:27:45;21.42;;;17.70;;
21519;SDS011;10921;53.614;9.882;2022-11-20T06:30:12;19.38;;;17.30;;
21519;SDS011;10921;53.614;9.882;2022-11-20T06:32:38;18.80;;;16.80;;
21519;SDS011;10921;53.614;9.882;2022-11-20T06:35:05;24.63;;;17.45;;
21519;SDS011;10921;53.614;9.882;2022-11-20T06:37:31;18.33;;;16.50;;
21519;SDS011;10921;53.614;9.882;2022-11-20T06:39:58;19.00;;;16.85;;
21519;SDS011;10921;53.614;9.882;2022-11-20T06:42:24;18.58;;;16.75;;
21519;SDS011;10921;53.614;9.882;2022-11-20T06:44:51;18.70;;;16.90;;
21519;SDS011;10921;53.614;9.882;2022-11-20T06:47:17;21.33;;;17.02;;
21519;SDS011;10921;53.614;9.882;2022-11-20T06:49:44;20.67;;;17.83;;
21519;SDS011;10921;53.614;9.882;2022-11-20T06:52:10;22.35;;;16.48;;
21519;SDS011;10921;53.614;9.882;2022-11-20T06:54:37;20.17;;;15.70;;
21519;SDS011;10921;53.614;9.882;2022-11-20T06:57:03;18.33;;;16.23;;
21519;SDS011;10921;53.614;9.882;2022-11-20T06:59:30;22.75;;;16.92;;
21519;SDS011;10921;53.614;9.882;2022-11-20T07:01:56;19.08;;;16.50;;
21519;SDS011;10921;53.614;9.882;2022-11-20T07:04:23;19.10;;;17.23;;
21519;SDS011;10921;53.614;9.882;2022-11-20T07:06:49;20.02;;;17.50;;
21519;SDS011;10921;53.614;9.882;2022-11-20T07:09:16;22.70;;;18.83;;
21519;SDS011;10921;53.614;9.882;2022-11-20T07:11:42;19.88;;;17.73;;
21519;SDS011;10921;53.614;9.882;2022-11-20T07:14:09;19.02;;;16.33;;
21519;SDS011;10921;53.614;9.882;2022-11-20T07:16:35;19.10;;;17.20;;
21519;SDS011;10921;53.614;9.882;2022-11-20T07:19:02;18.10;;;16.20;;
21519;SDS011;10921;53.614;9.882;2022-11-20T07:21:28;18.42;;;16.52;;
21519;SDS011;10921;53.614;9.882;2022-11-20T07:23:54;18.15;;;16.30;;
21519;SDS011;10921;53.614;9.882;2022-11-20T07:26:21;20.33;;;16.33;;
21519;SDS011;10921;53.614;9.882;2022-11-20T07:28:47;20.13;;;15.85;;
21519;SDS011;10921;53.614;9.882;2022-11-20T07:31:14;20.00;;;16.30;;
21519;SDS011;10921;53.614;9.882;2022-11-20T07:33:44;19.23;;;15.57;;
21519;SDS011;10921;53.614;9.882;2022-11-20T07:36:11;25.15;;;18.70;;
21519;SDS011;10921;53.614;9.882;2022-11-20T07:38:37;38.30;;;28.05;;
21519;SDS011;10921;53.614;9.882;2022-11-20T07:41:04;24.30;;;20.02;;
21519;SDS011;10921;53.614;9.882;2022-11-20T07:43:31;26.05;;;21.10;;
21519;SDS011;10921;53.614;9.882;2022-11-20T07:46:03;21.50;;;18.90;;
21519;SDS011;10921;53.614;9.882;2022-11-20T07:48:30;19.92;;;16.85;;
21519;SDS011;10921;53.614;9.882;2022-11-20T07:50:56;19.35;;;16.33;;
21519;SDS011;10921;53.614;9.882;2022-11-20T07:53:23;20.25;;;17.35;;
21519;SDS011;10921;53.614;9.882;2022-11-20T07:55:50;28.67;;;18.85;;
21519;SDS011;10921;53.614;9.882;2022-11-20T07:58:20;23.63;;;19.48;;
21519;SDS011;10921;53.614;9.882;2022-11-20T08:00:47;23.55;;;18.25;;
21519;SDS011;10921;53.614;9.882;2022-11-20T08:03:13;22.30;;;17.90;;
21519;SDS011;10921;53.614;9.882;2022-11-20T08:05:45;20.13;;;17.02;;
21519;SDS011;10921;53.614;9.882;2022-11-20T08:08:11;17.85;;;15.85;;
21519;SDS011;10921;53.614;9.882;2022-11-20T08:10:38;18.15;;;15.50;;
21519;SDS011;10921;53.614;9.882;2022-11-20T08:13:04;23.50;;;19.73;;
21519;SDS011;10921;53.614;9.882;2022-11-20T08:15:49;24.98;;;19.42;;
21519;SDS011;10921;53.614;9.882;2022-11-20T08:18:17;22.65;;;18.50;;
21519;SDS011;10921;53.614;9.882;2022-11-20T08:21:02;28.88;;;19.88;;
21519;SDS011;10921;53.614;9.882;2022-11-20T08:23:38;34.25;;;22.00;;
21519;SDS011;10921;53.614;9.882;2022-11-20T08:26:05;43.97;;;23.63;;
21519;SDS011;10921;53.614;9.882;2022-11-20T08:28:31;53.65;;;25.73;;
21519;SDS011;10921;53.614;9.882;2022-11-20T08:30:59;44.63;;;23.45;;
21519;SDS011;10921;53.614;9.882;2022-11-20T08:33:26;36.33;;;21.27;;
21519;SDS011;10921;53.614;9.882;2022-11-20T08:35:57;32.92;;;18.40;;
21519;SDS011;10921;53.614;9.882;2022-11-20T08:38:25;29.60;;;19.15;;
21519;SDS011;10921;53.614;9.882;2022-11-20T08:40:51;21.27;;;14.73;;
21519;SDS011;10921;53.614;9.882;2022-11-20T08:43:36;23.52;;;18.65;;
21519;SDS011;10921;53.614;9.882;2022-11-20T08:46:03;17.73;;;15.77;;
21519;SDS011;10921;53.614;9.882;2022-11-20T08:48:29;18.48;;;15.70;;
21519;SDS011;10921;53.614;9.882;2022-11-20T08:50:57;19.08;;;16.33;;
21519;SDS011;10921;53.614;9.882;2022-11-20T08:53:26;17.40;;;15.43;;
21519;SDS011;10921;53.614;9.882;2022-11-20T08:55:53;17.02;;;14.35;;
21519;SDS011;10921;53.614;9.882;2022-11-20T08:58:19;16.50;;;14.90;;
21519;SDS011;10921;53.614;9.882;2022-11-20T09:00:46;17.30;;;14.30;;
21519;SDS011;10921;53.614;9.882;2022-11-20T09:03:13;15.82;;;14.25;;
21519;SDS011;10921;53.614;9.882;2022-11-20T09:05:39;16.05;;;14.40;;
21519;SDS011;10921;53.614;9.882;2022-11-20T09:08:06;15.82;;;14.20;;
21519;SDS011;10921;53.614;9.882;2022-11-20T09:10:32;16.40;;;14.70;;
21519;SDS011;10921;53.614;9.882;2022-11-20T09:12:59;16.00;;;14.50;;
21519;SDS011;10921;53.614;9.882;2022-11-20T09:15:25;14.98;;;13.57;;
21519;SDS011;10921;53.614;9.882;2022-11-20T09:20:19;15.80;;;14.38;;
21519;SDS011;10921;53.614;9.882;2022-11-20T09:22:45;15.70;;;14.30;;
21519;SDS011;10921;53.614;9.882;2022-11-20T09:25:12;15.18;;;13.68;;
21519;SDS011;10921;53.614;9.882;2022-11-20T09:27:38;14.93;;;13.52;;
21519;SDS011;10921;53.614;9.882;2022-11-20T09:30:07;15.63;;;14.18;;
21519;SDS011;10921;53.614;9.882;2022-11-20T09:32:34;15.45;;;14.05;;
21519;SDS011;10921;53.614;9.882;2022-11-20T09:35:00;15.63;;;14.02;;
21519;SDS011;10921;53.614;9.882;2022-11-20T09:37:31;15.70;;;14.25;;
21519;SDS011;10921;53.614;9.882;2022-11-20T09:39:58;15.05;;;13.65;;
21519;SDS011;10921;53.614;9.882;2022-11-20T09:42:39;15.45;;;13.90;;
21519;SDS011;10921;53.614;9.882;2022-11-20T09:50:49;15.48;;;14.05;;
21519;SDS011;10921;53.614;9.882;2022-11-20T09:56:07;14.50;;;13.10;;
21519;SDS011;10921;53.614;9.882;2022-11-20T09:58:44;15.32;;;13.48;;
21519;SDS011;10921;53.614;9.882;2022-11-20T10:01:15;15.23;;;13.82;;
21519;SDS011;10921;53.614;9.882;2022-11-20T10:03:53;13.18;;;11.90;;
21519;SDS011;10921;53.614;9.882;2022-11-20T10:06:33;14.18;;;12.68;;
21519;SDS011;10921;53.614;9.882;2022-11-20T10:25:14;14.00;;;12.65;;
21519;SDS011;10921;53.614;9.882;2022-11-20T10:28:00;14.27;;;12.90;;
21519;SDS011;10921;53.614;9.882;2022-11-20T10:30:44;14.10;;;12.80;;
21519;SDS011;10921;53.614;9.882;2022-11-20T10:33:14;14.50;;;13.20;;
21519;SDS011;10921;53.614;9.882;2022-11-20T10:38:39;13.73;;;12.52;;
21519;SDS011;10921;53.614;9.882;2022-11-20T10:41:15;14.27;;;12.77;;
21519;SDS011;10921;53.614;9.882;2022-11-20T10:44:00;14.30;;;12.88;;
21519;SDS011;10921;53.614;9.882;2022-11-20T10:46:39;13.57;;;12.38;;
21519;SDS011;10921;53.614;9.882;2022-11-20T10:49:14;13.82;;;12.73;;
21519;SDS011;10921;53.614;9.882;2022-11-20T10:54:53;13.93;;;12.82;;
21519;SDS011;10921;53.614;9.882;2022-11-20T10:57:35;13.70;;;12.50;;
21519;SDS011;10921;53.614;9.882;2022-11-20T11:00:20;14.80;;;12.75;;
21519;SDS011;10921;53.614;9.882;2022-11-20T11:02:48;14.48;;;13.23;;
21519;SDS011;10921;53.614;9.882;2022-11-20T11:07:55;14.00;;;12.70;;
21519;SDS011;10921;53.614;9.882;2022-11-20T11:12:50;13.43;;;12.23;;
21519;SDS011;10921;53.614;9.882;2022-11-20T11:15:29;14.07;;;12.90;;
21519;SDS011;10921;53.614;9.882;2022-11-20T11:18:03;13.88;;;12.68;;
21519;SDS011;10921;53.614;9.882;2022-11-20T11:20:30;14.73;;;13.45;;
21519;SDS011;10921;53.614;9.882;2022-11-20T11:22:58;15.90;;;14.35;;
21519;SDS011;10921;53.614;9.882;2022-11-20T11:25:35;14.23;;;12.93;;
21519;SDS011;10921;53.614;9.882;2022-11-20T11:28:04;14.70;;;13.30;;
21519;SDS011;10921;53.614;9.882;2022-11-20T11:30:53;14.90;;;13.60;;
21519;SDS011;10921;53.614;9.882;2022-11-20T11:33:21;13.25;;;12.05;;
21519;SDS011;10921;53.614;9.882;2022-11-20T11:35:54;13.95;;;12.73;;
21519;SDS011;10921;53.614;9.882;2022-11-20T11:38:38;13.35;;;12.15;;
21519;SDS011;10921;53.614;9.882;2022-11-20T11:41:08;13.02;;;12.02;;
21519;SDS011;10921;53.614;9.882;2022-11-20T11:43:38;13.13;;;11.93;;
21519;SDS011;10921;53.614;9.882;2022-11-20T11:46:31;13.18;;;12.18;;
21519;SDS011;10921;53.614;9.882;2022-11-20T11:57:00;12.73;;;11.73;;
21519;SDS011;10921;53.614;9.882;2022-11-20T11:59:53;13.20;;;12.20;;
21519;SDS011;10921;53.614;9.882;2022-11-20T12:08:02;13.18;;;12.07;;
21519;SDS011;10921;53.614;9.882;2022-11-20T12:15:54;13.48;;;12.32;;
21519;SDS011;10921;53.614;9.882;2022-11-20T12:18:21;12.23;;;11.23;;
21519;SDS011;10921;53.614;9.882;2022-11-20T12:21:37;14.25;;;13.05;;
21519;SDS011;10921;53.614;9.882;2022-11-20T12:26:17;13.90;;;12.70;;
21519;SDS011;10921;53.614;9.882;2022-11-20T12:29:20;12.52;;;11.48;;
21519;SDS011;10921;53.614;9.882;2022-11-20T12:32:35;14.45;;;12.95;;
21519;SDS011;10921;53.614;9.882;2022-11-20T12:37:28;14.30;;;13.20;;
21519;SDS011;10921;53.614;9.882;2022-11-20T12:49:45;16.85;;;15.35;;
21519;SDS011;10921;53.614;9.882;2022-11-20T12:52:29;12.65;;;11.75;;
21519;SDS011;10921;53.614;9.882;2022-11-20T12:58:02;13.18;;;12.18;;
21519;SDS011;10921;53.614;9.882;2022-11-20T13:00:29;11.88;;;11.07;;
21519;SDS011;10921;53.614;9.882;2022-11-20T13:08:35;11.02;;;10.32;;
21519;SDS011;10921;53.614;9.882;2022-11-20T13:16:36;10.93;;;10.15;;
21519;SDS011;10921;53.614;9.882;2022-11-20T13:19:12;12.02;;;11.15;;
21519;SDS011;10921;53.614;9.882;2022-11-20T13:21:44;12.63;;;11.73;;
21519;SDS011;10921;53.614;9.882;2022-11-20T13:26:46;11.93;;;11.13;;
21519;SDS011;10921;53.614;9.882;2022-11-20T13:29:17;11.15;;;10.38;;
21519;SDS011;10921;53.614;9.882;2022-11-20T13:31:45;11.27;;;10.48;;
21519;SDS011;10921;53.614;9.882;2022-11-20T13:34:25;13.27;;;12.18;;
21519;SDS011;10921;53.614;9.882;2022-11-20T13:36:54;12.88;;;11.85;;
21519;SDS011;10921;53.614;9.882;2022-11-20T13:39:26;12.27;;;11.35;;
21519;SDS011;10921;53.614;9.882;2022-11-20T13:44:39;11.60;;;10.80;;
21519;SDS011;10921;53.614;9.882;2022-11-20T13:47:20;14.38;;;12.88;;
21519;SDS011;10921;53.614;9.882;2022-11-20T13:49:51;14.20;;;13.00;;
21519;SDS011;10921;53.614;9.882;2022-11-20T14:00:46;17.88;;;16.05;;
21519;SDS011;10921;53.614;9.882;2022-11-20T14:03:18;16.70;;;15.05;;
21519;SDS011;10921;53.614;9.882;2022-11-20T14:06:11;18.75;;;15.63;;
21519;SDS011;10921;53.614;9.882;2022-11-20T14:08:44;13.93;;;12.63;;
21519;SDS011;10921;53.614;9.882;2022-11-20T14:11:17;13.85;;;12.68;;
21519;SDS011;10921;53.614;9.882;2022-11-20T14:16:34;13.57;;;12.27;;
21519;SDS011;10921;53.614;9.882;2022-11-20T14:21:47;12.27;;;11.30;;
21519;SDS011;10921;53.614;9.882;2022-11-20T14:24:32;13.75;;;12.35;;
21519;SDS011;10921;53.614;9.882;2022-11-20T14:26:58;16.05;;;14.45;;
21519;SDS011;10921;53.614;9.882;2022-11-20T14:29:43;15.10;;;13.63;;
21519;SDS011;10921;53.614;9.882;2022-11-20T14:32:11;13.52;;;12.32;;
21519;SDS011;10921;53.614;9.882;2022-11-20T14:34:42;14.00;;;12.70;;
21519;SDS011;10921;53.614;9.882;2022-11-20T14:37:12;12.52;;;11.23;;
21519;SDS011;10921;53.614;9.882;2022-11-20T14:39:47;19.15;;;13.65;;
21519;SDS011;10921;53.614;9.882;2022-11-20T14:42:20;15.77;;;14.02;;
21519;SDS011;10921;53.614;9.882;2022-11-20T14:44:48;14.27;;;12.88;;
21519;SDS011;10921;53.614;9.882;2022-11-20T14:47:21;14.60;;;13.15;;
21519;SDS011;10921;53.614;9.882;2022-11-20T14:49:51;14.45;;;12.98;;
21519;SDS011;10921;53.614;9.882;2022-11-20T14:52:20;14.13;;;12.73;;
21519;SDS011;10921;53.614;9.882;2022-11-20T14:54:52;13.48;;;12.23;;
21519;SDS011;10921;53.614;9.882;2022-11-20T14:57:29;14.00;;;12.70;;
21519;SDS011;10921;53.614;9.882;2022-11-20T15:02:44;14.57;;;13.18;;
21519;SDS011;10921;53.614;9.882;2022-11-20T15:05:12;15.52;;;14.05;;
21519;SDS011;10921;53.614;9.882;2022-11-20T15:07:43;20.20;;;18.00;;
21519;SDS011;10921;53.614;9.882;2022-11-20T15:12:55;18.65;;;15.48;;
21519;SDS011;10921;53.614;9.882;2022-11-20T15:18:19;19.45;;;15.25;;
21519;SDS011;10921;53.614;9.882;2022-11-20T15:20:47;55.72;;;28.40;;
21519;SDS011;10921;53.614;9.882;2022-11-20T15:23:16;32.33;;;20.20;;
21519;SDS011;10921;53.614;9.882;2022-11-20T15:25:46;31.70;;;18.88;;
21519;SDS011;10921;53.614;9.882;2022-11-20T15:28:19;30.23;;;18.95;;
21519;SDS011;10921;53.614;9.882;2022-11-20T15:30:48;123.78;;;60.00;;
21519;SDS011;10921;53.614;9.882;2022-11-20T15:33:16;85.75;;;44.85;;
21519;SDS011;10921;53.614;9.882;2022-11-20T15:35:43;42.35;;;26.42;;
21519;SDS011;10921;53.614;9.882;2022-11-20T15:38:10;31.83;;;22.38;;
21519;SDS011;10921;53.614;9.882;2022-11-20T15:40:36;25.52;;;19.63;;
21519;SDS011;10921;53.614;9.882;2022-11-20T15:43:02;28.13;;;21.70;;
21519;SDS011;10921;53.614;9.882;2022-11-20T15:48:05;36.05;;;22.65;;
21519;SDS011;10921;53.614;9.882;2022-11-20T15:50:38;28.40;;;20.60;;
21519;SDS011;10921;53.614;9.882;2022-11-20T15:53:12;22.10;;;18.00;;
21519;SDS011;10921;53.614;9.882;2022-11-20T15:55:39;22.30;;;17.13;;
21519;SDS011;10921;53.614;9.882;2022-11-20T15:58:05;22.33;;;17.13;;
21519;SDS011;10921;53.614;9.882;2022-11-20T16:00:32;23.00;;;18.65;;
21519;SDS011;10921;53.614;9.882;2022-11-20T16:02:58;22.20;;;18.70;;
21519;SDS011;10921;53.614;9.882;2022-11-20T16:05:27;19.92;;;17.13;;
21519;SDS011;10921;53.614;9.882;2022-11-20T16:07:55;26.58;;;22.05;;
21519;SDS011;10921;53.614;9.882;2022-11-20T16:10:22;27.98;;;22.73;;
21519;SDS011;10921;53.614;9.882;2022-11-20T16:12:49;27.05;;;23.67;;
21519;SDS011;10921;53.614;9.882;2022-11-20T16:15:34;30.83;;;23.42;;
21519;SDS011;10921;53.614;9.882;2022-11-20T16:18:19;33.45;;;24.30;;
21519;SDS011;10921;53.614;9.882;2022-11-20T16:20:48;30.15;;;24.45;;
21519;SDS011;10921;53.614;9.882;2022-11-20T16:23:17;34.17;;;25.07;;
21519;SDS011;10921;53.614;9.882;2022-11-20T16:25:44;58.40;;;40.75;;
21519;SDS011;10921;53.614;9.882;2022-11-20T16:28:10;41.33;;;30.55;;
21519;SDS011;10921;53.614;9.882;2022-11-20T16:30:44;39.15;;;27.77;;
21519;SDS011;10921;53.614;9.882;2022-11-20T16:33:12;36.72;;;28.05;;
21519;SDS011;10921;53.614;9.882;2022-11-20T16:35:40;34.57;;;26.07;;
21519;SDS011;10921;53.614;9.882;2022-11-20T16:38:06;32.83;;;23.00;;
21519;SDS011;10921;53.614;9.882;2022-11-20T16:40:33;28.13;;;21.63;;
21519;SDS011;10921;53.614;9.882;2022-11-20T16:43:09;29.23;;;23.08;;
21519;SDS011;10921;53.614;9.882;2022-11-20T16:45:40;28.10;;;22.75;;
21519;SDS011;10921;53.614;9.882;2022-11-20T16:48:11;29.10;;;23.17;;